sensor_id;sensor_type;location;lat;lon;timestamp;pressure;altitude;pressure_sealevel;temperature;humidity
8061;BME280;4073;42.626;25.386;2023-05-23T00:02:13;96900.13;;;12.82;100.00
8061;BME280;4073;42.626;25.386;2023-05-23T00:04:39;96895.03;;;12.81;100.00
8061;BME280;4073;42.626;25.386;2023-05-23T00:07:05;96885.69;;;12.78;100.00
8061;BME280;4073;42.626;25.386;2023-05-23T00:09:30;96888.69;;;12.77;100.00
8061;BME280;4073;42.626;25.386;2023-05-23T00:11:56;96883.31;;;12.77;100.00
8061;BME280;4073;42.626;25.386;2023-05-23T00:14:21;96885.13;;;12.81;100.00
8061;BME280;4073;42.626;25.386;2023-05-23T00:16:48;96890.69;;;12.85;100.00
8061;BME280;4073;42.626;25.386;2023-05-23T00:19:14;96880.53;;;12.82;100.00
8061;BME280;4073;42.626;25.386;2023-05-23T00:21:45;96883.16;;;12.87;100.00
8061;BME280;4073;42.626;25.386;2023-05-23T00:24:15;96876.78;;;12.83;100.00
8061;BME280;4073;42.626;25.386;2023-05-23T00:26:45;96881.56;;;12.86;100.00
8061;BME280;4073;42.626;25.386;2023-05-23T00:29:14;96872.91;;;12.89;100.00
8061;BME280;4073;42.626;25.386;2023-05-23T00:31:41;96872.72;;;12.85;100.00
8061;BME280;4073;42.626;25.386;2023-05-23T00:34:11;96866.97;;;12.92;100.00
8061;BME280;4073;42.626;25.386;2023-05-23T00:36:37;96870.03;;;12.85;100.00
8061;BME280;4073;42.626;25.386;2023-05-23T00:39:03;96866.47;;;12.90;100.00
8061;BME280;4073;42.626;25.386;2023-05-23T00:41:29;96869.66;;;12.92;100.00
8061;BME280;4073;42.626;25.386;2023-05-23T00:43:56;96870.63;;;12.96;100.00
8061;BME280;4073;42.626;25.386;2023-05-23T00:46:24;96873.28;;;13.01;100.00
8061;BME280;4073;42.626;25.386;2023-05-23T00:48:50;96882.06;;;13.07;100.00
8061;BME280;4073;42.626;25.386;2023-05-23T00:51:16;96879.94;;;13.03;100.00
8061;BME280;4073;42.626;25.386;2023-05-23T00:53:41;96877.63;;;12.97;100.00
8061;BME280;4073;42.626;25.386;2023-05-23T00:56:07;96865.47;;;12.86;100.00
8061;BME280;4073;42.626;25.386;2023-05-23T00:58:33;96859.06;;;12.82;100.00
8061;BME280;4073;42.626;25.386;2023-05-23T01:00:58;96872.41;;;12.87;100.00
8061;BME280;4073;42.626;25.386;2023-05-23T01:03:24;96867.34;;;12.85;100.00
8061;BME280;4073;42.626;25.386;2023-05-23T01:05:53;96865.16;;;12.87;100.00
8061;BME280;4073;42.626;25.386;2023-05-23T01:08:20;96855.63;;;12.81;100.00
8061;BME280;4073;42.626;25.386;2023-05-23T01:10:46;96848.84;;;12.84;100.00
8061;BME280;4073;42.626;25.386;2023-05-23T01:16:07;96848.06;;;12.83;100.00
8061;BME280;4073;42.626;25.386;2023-05-23T01:21:26;96853.06;;;12.90;100.00
8061;BME280;4073;42.626;25.386;2023-05-23T01:29:26;96842.84;;;12.73;100.00
8061;BME280;4073;42.626;25.386;2023-05-23T01:31:54;96826.72;;;12.60;100.00
8061;BME280;4073;42.626;25.386;2023-05-23T01:34:22;96838.97;;;12.66;100.00
8061;BME280;4073;42.626;25.386;2023-05-23T01:36:56;96851.31;;;12.80;100.00
8061;BME280;4073;42.626;25.386;2023-05-23T01:39:22;96836.03;;;12.81;100.00
8061;BME280;4073;42.626;25.386;2023-05-23T01:41:52;96843.41;;;12.89;100.00
8061;BME280;4073;42.626;25.386;2023-05-23T01:44:18;96837.53;;;12.87;100.00
8061;BME280;4073;42.626;25.386;2023-05-23T01:46:45;96841.97;;;12.78;100.00
8061;BME280;4073;42.626;25.386;2023-05-23T01:49:12;96842.28;;;12.76;100.00
8061;BME280;4073;42.626;25.386;2023-05-23T01:51:39;96839.88;;;12.75;100.00
8061;BME280;4073;42.626;25.386;2023-05-23T01:54:05;96835.16;;;12.85;100.00
8061;BME280;4073;42.626;25.386;2023-05-23T01:56:31;96839.25;;;12.96;100.00
8061;BME280;4073;42.626;25.386;2023-05-23T01:58:57;96818.63;;;13.11;100.00
8061;BME280;4073;42.626;25.386;2023-05-23T02:01:22;96834.78;;;13.24;100.00
8061;BME280;4073;42.626;25.386;2023-05-23T02:03:48;96831.03;;;13.39;100.00
8061;BME280;4073;42.626;25.386;2023-05-23T02:06:13;96830.31;;;13.47;100.00
8061;BME280;4073;42.626;25.386;2023-05-23T02:08:39;96830.44;;;13.55;100.00
8061;BME280;4073;42.626;25.386;2023-05-23T02:11:04;96832.31;;;13.68;100.00
8061;BME280;4073;42.626;25.386;2023-05-23T02:13:32;96850.72;;;13.75;100.00
8061;BME280;4073;42.626;25.386;2023-05-23T02:15:58;96848.31;;;13.73;100.00
8061;BME280;4073;42.626;25.386;2023-05-23T02:18:23;96854.88;;;13.67;100.00
8061;BME280;4073;42.626;25.386;2023-05-23T02:20:50;96847.25;;;13.61;100.00
8061;BME280;4073;42.626;25.386;2023-05-23T02:23:16;96821.75;;;13.45;100.00
8061;BME280;4073;42.626;25.386;2023-05-23T02:25:41;96858.88;;;13.70;100.00
8061;BME280;4073;42.626;25.386;2023-05-23T02:28:06;96861.06;;;13.68;100.00
8061;BME280;4073;42.626;25.386;2023-05-23T02:30:32;96850.31;;;13.68;100.00
8061;BME280;4073;42.626;25.386;2023-05-23T02:32:57;96851.31;;;13.72;100.00
8061;BME280;4073;42.626;25.386;2023-05-23T02:35:23;96846.13;;;13.62;100.00
8061;BME280;4073;42.626;25.386;2023-05-23T02:37:48;96846.84;;;13.54;100.00
8061;BME280;4073;42.626;25.386;2023-05-23T02:40:14;96845.16;;;13.58;100.00
8061;BME280;4073;42.626;25.386;2023-05-23T02:42:39;96841.97;;;13.56;100.00
8061;BME280;4073;42.626;25.386;2023-05-23T02:45:05;96851.31;;;13.45;100.00
8061;BME280;4073;42.626;25.386;2023-05-23T02:47:31;96845.44;;;13.43;100.00
8061;BME280;4073;42.626;25.386;2023-05-23T02:49:56;96840.06;;;13.43;100.00
8061;BME280;4073;42.626;25.386;2023-05-23T02:52:22;96837.75;;;13.36;100.00
8061;BME280;4073;42.626;25.386;2023-05-23T02:54:48;96838.38;;;13.47;100.00
8061;BME280;4073;42.626;25.386;2023-05-23T02:57:13;96830.03;;;13.75;100.00
8061;BME280;4073;42.626;25.386;2023-05-23T02:59:38;96842.03;;;14.05;100.00
8061;BME280;4073;42.626;25.386;2023-05-23T03:02:04;96845.44;;;14.24;100.00
8061;BME280;4073;42.626;25.386;2023-05-23T03:04:29;96855.31;;;14.50;100.00
8061;BME280;4073;42.626;25.386;2023-05-23T03:06:55;96845.09;;;14.61;100.00
8061;BME280;4073;42.626;25.386;2023-05-23T03:09:20;96845.13;;;14.83;100.00
8061;BME280;4073;42.626;25.386;2023-05-23T03:11:46;96844.06;;;14.92;100.00
8061;BME280;4073;42.626;25.386;2023-05-23T03:14:11;96850.47;;;15.05;100.00
8061;BME280;4073;42.626;25.386;2023-05-23T03:16:37;96856.06;;;15.08;100.00
8061;BME280;4073;42.626;25.386;2023-05-23T03:19:02;96854.38;;;15.21;100.00
8061;BME280;4073;42.626;25.386;2023-05-23T03:21:29;96851.22;;;15.19;100.00
8061;BME280;4073;42.626;25.386;2023-05-23T03:23:55;96852.66;;;15.25;100.00
8061;BME280;4073;42.626;25.386;2023-05-23T03:26:21;96864.28;;;15.34;100.00
8061;BME280;4073;42.626;25.386;2023-05-23T03:28:47;96851.69;;;15.43;100.00
8061;BME280;4073;42.626;25.386;2023-05-23T03:31:13;96855.81;;;15.49;100.00
8061;BME280;4073;42.626;25.386;2023-05-23T03:33:38;96856.19;;;15.56;100.00
8061;BME280;4073;42.626;25.386;2023-05-23T03:36:04;96855.59;;;15.68;100.00
8061;BME280;4073;42.626;25.386;2023-05-23T03:38:30;96854.84;;;15.76;100.00
8061;BME280;4073;42.626;25.386;2023-05-23T03:40:55;96860.41;;;15.79;100.00
8061;BME280;4073;42.626;25.386;2023-05-23T03:43:20;96870.56;;;15.82;100.00
8061;BME280;4073;42.626;25.386;2023-05-23T03:45:46;96866.63;;;15.88;100.00
8061;BME280;4073;42.626;25.386;2023-05-23T03:48:11;96865.16;;;15.82;100.00
8061;BME280;4073;42.626;25.386;2023-05-23T03:50:37;96867.13;;;15.90;100.00
8061;BME280;4073;42.626;25.386;2023-05-23T03:53:02;96871.09;;;16.01;100.00
8061;BME280;4073;42.626;25.386;2023-05-23T03:55:27;96878.38;;;16.01;100.00
8061;BME280;4073;42.626;25.386;2023-05-23T03:57:56;96866.97;;;16.04;100.00
8061;BME280;4073;42.626;25.386;2023-05-23T04:00:21;96873.63;;;16.06;100.00
8061;BME280;4073;42.626;25.386;2023-05-23T04:02:46;96868.59;;;16.13;100.00
8061;BME280;4073;42.626;25.386;2023-05-23T04:05:12;96869.38;;;16.05;100.00
8061;BME280;4073;42.626;25.386;2023-05-23T04:07:38;96870.81;;;16.11;100.00
8061;BME280;4073;42.626;25.386;2023-05-23T04:10:04;96884.94;;;16.17;100.00
8061;BME280;4073;42.626;25.386;2023-05-23T04:12:30;96881.75;;;16.15;100.00
8061;BME280;4073;42.626;25.386;2023-05-23T04:14:55;96884.78;;;16.22;100.00
8061;BME280;4073;42.626;25.386;2023-05-23T04:17:22;96866.53;;;16.19;100.00
8061;BME280;4073;42.626;25.386;2023-05-23T04:19:48;96882.72;;;16.27;100.00
8061;BME280;4073;42.626;25.386;2023-05-23T04:22:14;96882.56;;;16.24;100.00
8061;BME280;4073;42.626;25.386;2023-05-23T04:24:39;96883.53;;;16.28;100.00
8061;BME280;4073;42.626;25.386;2023-05-23T04:27:05;96874.81;;;16.22;100.00
8061;BME280;4073;42.626;25.386;2023-05-23T04:29:32;96881.47;;;16.33;100.00
8061;BME280;4073;42.626;25.386;2023-05-23T04:31:58;96891.50;;;16.41;100.00
8061;BME280;4073;42.626;25.386;2023-05-23T04:34:23;96886.31;;;16.53;100.00
8061;BME280;4073;42.626;25.386;2023-05-23T04:36:49;96897.28;;;16.65;100.00
8061;BME280;4073;42.626;25.386;2023-05-23T04:39:15;96890.47;;;16.76;100.00
8061;BME280;4073;42.626;25.386;2023-05-23T04:41:41;96898.88;;;16.92;100.00
8061;BME280;4073;42.626;25.386;2023-05-23T04:44:06;96896.66;;;17.02;100.00
8061;BME280;4073;42.626;25.386;2023-05-23T04:46:34;96900.94;;;17.12;100.00
8061;BME280;4073;42.626;25.386;2023-05-23T04:49:01;96906.78;;;17.22;100.00
8061;BME280;4073;42.626;25.386;2023-05-23T04:51:26;96898.69;;;17.14;100.00
8061;BME280;4073;42.626;25.386;2023-05-23T04:53:52;96902.50;;;17.21;100.00
8061;BME280;4073;42.626;25.386;2023-05-23T04:56:17;96902.78;;;17.37;100.00
8061;BME280;4073;42.626;25.386;2023-05-23T04:58:47;96915.53;;;17.45;100.00
8061;BME280;4073;42.626;25.386;2023-05-23T05:01:13;96916.78;;;17.56;100.00
8061;BME280;4073;42.626;25.386;2023-05-23T05:03:38;96925.66;;;17.65;100.00
8061;BME280;4073;42.626;25.386;2023-05-23T05:06:05;96925.97;;;17.72;100.00
8061;BME280;4073;42.626;25.386;2023-05-23T05:08:31;96923.72;;;17.74;100.00
8061;BME280;4073;42.626;25.386;2023-05-23T05:10:56;96927.88;;;17.71;100.00
8061;BME280;4073;42.626;25.386;2023-05-23T05:13:22;96925.31;;;17.66;100.00
8061;BME280;4073;42.626;25.386;2023-05-23T05:15:47;96932.16;;;17.72;100.00
8061;BME280;4073;42.626;25.386;2023-05-23T05:18:13;96933.91;;;17.68;100.00
8061;BME280;4073;42.626;25.386;2023-05-23T05:20:39;96942.81;;;17.77;100.00
8061;BME280;4073;42.626;25.386;2023-05-23T05:23:04;96938.50;;;17.76;100.00
8061;BME280;4073;42.626;25.386;2023-05-23T05:25:30;96950.72;;;17.82;100.00
8061;BME280;4073;42.626;25.386;2023-05-23T05:28:02;96956.31;;;17.86;100.00
8061;BME280;4073;42.626;25.386;2023-05-23T05:30:30;96938.47;;;17.85;100.00
8061;BME280;4073;42.626;25.386;2023-05-23T05:33:00;96952.47;;;17.87;100.00
8061;BME280;4073;42.626;25.386;2023-05-23T05:35:26;96951.47;;;18.00;100.00
8061;BME280;4073;42.626;25.386;2023-05-23T05:37:51;96948.72;;;18.17;100.00
8061;BME280;4073;42.626;25.386;2023-05-23T05:40:17;96949.91;;;18.28;100.00
8061;BME280;4073;42.626;25.386;2023-05-23T05:42:42;96956.91;;;18.29;100.00
8061;BME280;4073;42.626;25.386;2023-05-23T05:45:08;96960.13;;;18.23;100.00
8061;BME280;4073;42.626;25.386;2023-05-23T05:47:35;96972.44;;;18.12;100.00
8061;BME280;4073;42.626;25.386;2023-05-23T05:50:04;96966.38;;;18.15;100.00
8061;BME280;4073;42.626;25.386;2023-05-23T05:52:29;96974.06;;;18.04;100.00
8061;BME280;4073;42.626;25.386;2023-05-23T05:54:55;96975.47;;;18.10;100.00
8061;BME280;4073;42.626;25.386;2023-05-23T05:57:21;96970.97;;;18.23;100.00
8061;BME280;4073;42.626;25.386;2023-05-23T05:59:47;96981.16;;;18.17;100.00
8061;BME280;4073;42.626;25.386;2023-05-23T06:02:12;96977.81;;;18.20;100.00
8061;BME280;4073;42.626;25.386;2023-05-23T06:04:38;96971.47;;;18.16;100.00
8061;BME280;4073;42.626;25.386;2023-05-23T06:07:03;96975.47;;;18.10;100.00
8061;BME280;4073;42.626;25.386;2023-05-23T06:09:29;96969.13;;;18.06;100.00
8061;BME280;4073;42.626;25.386;2023-05-23T06:11:55;96967.63;;;18.17;100.00
8061;BME280;4073;42.626;25.386;2023-05-23T06:14:20;96979.06;;;18.23;100.00
8061;BME280;4073;42.626;25.386;2023-05-23T06:16:45;96976.19;;;18.28;100.00
8061;BME280;4073;42.626;25.386;2023-05-23T06:19:11;96981.41;;;18.33;100.00
8061;BME280;4073;42.626;25.386;2023-05-23T06:21:36;96969.97;;;18.36;100.00
8061;BME280;4073;42.626;25.386;2023-05-23T06:24:02;96977.09;;;18.49;100.00
8061;BME280;4073;42.626;25.386;2023-05-23T06:26:27;96981.69;;;18.48;100.00
8061;BME280;4073;42.626;25.386;2023-05-23T06:28:53;96986.25;;;18.56;100.00
8061;BME280;4073;42.626;25.386;2023-05-23T06:31:18;96986.09;;;18.61;100.00
8061;BME280;4073;42.626;25.386;2023-05-23T06:33:43;96982.84;;;18.68;100.00
8061;BME280;4073;42.626;25.386;2023-05-23T06:36:09;96983.78;;;18.72;100.00
8061;BME280;4073;42.626;25.386;2023-05-23T06:38:34;96980.91;;;18.77;100.00
8061;BME280;4073;42.626;25.386;2023-05-23T06:41:00;96974.66;;;19.05;100.00
8061;BME280;4073;42.626;25.386;2023-05-23T06:43:26;96979.56;;;19.32;100.00
8061;BME280;4073;42.626;25.386;2023-05-23T06:45:52;96984.13;;;19.73;100.00
8061;BME280;4073;42.626;25.386;2023-05-23T06:48:18;96980.97;;;20.15;100.00
8061;BME280;4073;42.626;25.386;2023-05-23T06:50:43;96986.09;;;20.41;100.00
8061;BME280;4073;42.626;25.386;2023-05-23T06:53:09;96994.13;;;20.50;100.00
8061;BME280;4073;42.626;25.386;2023-05-23T06:55:34;96960.66;;;20.33;100.00
8061;BME280;4073;42.626;25.386;2023-05-23T06:58:00;96980.53;;;20.13;100.00
8061;BME280;4073;42.626;25.386;2023-05-23T07:00:28;96986.97;;;20.21;100.00
8061;BME280;4073;42.626;25.386;2023-05-23T07:02:54;96986.97;;;20.21;100.00
8061;BME280;4073;42.626;25.386;2023-05-23T07:05:19;96987.31;;;20.19;100.00
8061;BME280;4073;42.626;25.386;2023-05-23T07:07:46;96974.31;;;20.13;100.00
8061;BME280;4073;42.626;25.386;2023-05-23T07:10:11;96975.13;;;20.13;100.00
8061;BME280;4073;42.626;25.386;2023-05-23T07:12:37;96963.41;;;20.01;100.00
8061;BME280;4073;42.626;25.386;2023-05-23T07:15:03;96969.56;;;19.77;100.00
8061;BME280;4073;42.626;25.386;2023-05-23T07:17:28;96960.72;;;19.68;100.00
8061;BME280;4073;42.626;25.386;2023-05-23T07:19:54;96951.00;;;19.67;100.00
8061;BME280;4073;42.626;25.386;2023-05-23T07:22:20;96953.69;;;19.55;100.00
8061;BME280;4073;42.626;25.386;2023-05-23T07:24:45;96947.91;;;19.57;100.00
8061;BME280;4073;42.626;25.386;2023-05-23T07:27:11;96945.28;;;19.81;100.00
8061;BME280;4073;42.626;25.386;2023-05-23T07:29:36;96942.22;;;20.39;100.00
8061;BME280;4073;42.626;25.386;2023-05-23T07:32:02;96948.16;;;20.93;100.00
8061;BME280;4073;42.626;25.386;2023-05-23T07:34:27;96940.47;;;21.34;90.41
8061;BME280;4073;42.626;25.386;2023-05-23T07:36:53;96959.69;;;21.81;85.13
8061;BME280;4073;42.626;25.386;2023-05-23T07:39:18;96950.03;;;22.30;79.52
8061;BME280;4073;42.626;25.386;2023-05-23T07:41:47;96955.69;;;22.68;74.40
8061;BME280;4073;42.626;25.386;2023-05-23T07:44:13;96959.16;;;23.19;75.33
8061;BME280;4073;42.626;25.386;2023-05-23T07:46:38;96968.88;;;23.35;75.88
8061;BME280;4073;42.626;25.386;2023-05-23T07:49:04;96951.44;;;23.59;71.51
8061;BME280;4073;42.626;25.386;2023-05-23T07:51:29;96951.56;;;23.66;71.52
8061;BME280;4073;42.626;25.386;2023-05-23T07:53:55;96956.38;;;23.72;69.77
8061;BME280;4073;42.626;25.386;2023-05-23T07:56:20;96950.09;;;24.10;68.32
8061;BME280;4073;42.626;25.386;2023-05-23T07:58:46;96955.34;;;23.99;66.75
8061;BME280;4073;42.626;25.386;2023-05-23T08:01:11;96946.44;;;23.83;64.86
8061;BME280;4073;42.626;25.386;2023-05-23T08:03:37;96946.88;;;24.04;68.94
8061;BME280;4073;42.626;25.386;2023-05-23T08:06:02;96952.22;;;24.20;65.23
8061;BME280;4073;42.626;25.386;2023-05-23T08:08:28;96954.88;;;24.39;63.60
8061;BME280;4073;42.626;25.386;2023-05-23T08:10:53;96948.63;;;24.16;65.41
8061;BME280;4073;42.626;25.386;2023-05-23T08:13:18;96951.78;;;24.40;66.12
8061;BME280;4073;42.626;25.386;2023-05-23T08:15:44;96943.69;;;24.47;63.52
8061;BME280;4073;42.626;25.386;2023-05-23T08:18:09;96946.47;;;24.73;64.89
8061;BME280;4073;42.626;25.386;2023-05-23T08:20:35;96935.47;;;24.70;65.69
8061;BME280;4073;42.626;25.386;2023-05-23T08:23:01;96932.53;;;24.82;62.94
8061;BME280;4073;42.626;25.386;2023-05-23T08:25:27;96936.28;;;24.48;60.44
8061;BME280;4073;42.626;25.386;2023-05-23T08:28:00;96932.19;;;24.12;64.31
8061;BME280;4073;42.626;25.386;2023-05-23T08:30:26;96937.66;;;24.12;63.78
8061;BME280;4073;42.626;25.386;2023-05-23T08:32:52;96928.97;;;24.29;62.71
8061;BME280;4073;42.626;25.386;2023-05-23T08:35:19;96916.47;;;24.54;62.33
8061;BME280;4073;42.626;25.386;2023-05-23T08:37:45;96909.75;;;24.71;61.78
8061;BME280;4073;42.626;25.386;2023-05-23T08:40:13;96926.91;;;24.71;58.71
8061;BME280;4073;42.626;25.386;2023-05-23T08:42:42;96911.56;;;24.89;59.83
8061;BME280;4073;42.626;25.386;2023-05-23T08:45:08;96915.31;;;25.07;57.37
8061;BME280;4073;42.626;25.386;2023-05-23T08:47:35;96916.94;;;25.38;57.48
8061;BME280;4073;42.626;25.386;2023-05-23T08:50:05;96901.28;;;25.75;56.25
8061;BME280;4073;42.626;25.386;2023-05-23T08:52:32;96922.53;;;26.25;52.70
8061;BME280;4073;42.626;25.386;2023-05-23T08:54:59;96919.91;;;26.39;51.07
8061;BME280;4073;42.626;25.386;2023-05-23T08:57:26;96888.31;;;26.52;52.04
8061;BME280;4073;42.626;25.386;2023-05-23T08:59:53;96901.78;;;26.71;50.19
8061;BME280;4073;42.626;25.386;2023-05-23T09:02:19;96913.66;;;26.86;49.61
8061;BME280;4073;42.626;25.386;2023-05-23T09:04:46;96915.97;;;26.87;50.39
8061;BME280;4073;42.626;25.386;2023-05-23T09:07:11;96917.91;;;26.83;50.54
8061;BME280;4073;42.626;25.386;2023-05-23T09:09:41;96917.22;;;27.00;51.31
8061;BME280;4073;42.626;25.386;2023-05-23T09:12:06;96915.63;;;26.92;52.23
8061;BME280;4073;42.626;25.386;2023-05-23T09:14:32;96921.72;;;27.22;49.67
8061;BME280;4073;42.626;25.386;2023-05-23T09:17:00;96916.41;;;27.68;47.45
8061;BME280;4073;42.626;25.386;2023-05-23T09:19:27;96913.28;;;27.77;47.80
8061;BME280;4073;42.626;25.386;2023-05-23T09:21:53;96911.00;;;28.17;44.66
8061;BME280;4073;42.626;25.386;2023-05-23T09:24:20;96917.34;;;28.53;43.58
8061;BME280;4073;42.626;25.386;2023-05-23T09:26:46;96908.31;;;28.66;43.58
8061;BME280;4073;42.626;25.386;2023-05-23T09:29:12;96907.91;;;28.61;40.73
8061;BME280;4073;42.626;25.386;2023-05-23T09:31:38;96916.94;;;28.79;39.93
8061;BME280;4073;42.626;25.386;2023-05-23T09:34:03;96917.72;;;28.86;40.87
8061;BME280;4073;42.626;25.386;2023-05-23T09:36:29;96913.78;;;28.70;44.44
8061;BME280;4073;42.626;25.386;2023-05-23T09:39:01;96907.88;;;28.78;44.85
8061;BME280;4073;42.626;25.386;2023-05-23T09:41:30;96918.44;;;29.01;42.24
8061;BME280;4073;42.626;25.386;2023-05-23T09:43:57;96913.28;;;29.31;39.26
8061;BME280;4073;42.626;25.386;2023-05-23T09:46:27;96907.63;;;29.66;39.66
8061;BME280;4073;42.626;25.386;2023-05-23T09:48:53;96909.19;;;29.74;38.93
8061;BME280;4073;42.626;25.386;2023-05-23T09:51:21;96903.81;;;29.35;39.85
8061;BME280;4073;42.626;25.386;2023-05-23T09:53:47;96914.56;;;28.74;40.93
8061;BME280;4073;42.626;25.386;2023-05-23T09:56:12;96920.03;;;28.04;42.48
8061;BME280;4073;42.626;25.386;2023-05-23T09:58:48;96906.56;;;27.74;41.84
8061;BME280;4073;42.626;25.386;2023-05-23T10:01:14;96911.72;;;27.79;41.54
8061;BME280;4073;42.626;25.386;2023-05-23T10:03:50;96907.88;;;28.33;41.15
8061;BME280;4073;42.626;25.386;2023-05-23T10:06:43;96908.31;;;28.49;39.73
8061;BME280;4073;42.626;25.386;2023-05-23T10:09:16;96906.69;;;28.27;41.39
8061;BME280;4073;42.626;25.386;2023-05-23T10:14:11;96897.25;;;27.96;39.93
8061;BME280;4073;42.626;25.386;2023-05-23T10:16:52;96899.22;;;27.92;39.52
8061;BME280;4073;42.626;25.386;2023-05-23T10:21:50;96897.69;;;28.47;38.26
8061;BME280;4073;42.626;25.386;2023-05-23T10:24:20;96897.66;;;28.82;37.65
8061;BME280;4073;42.626;25.386;2023-05-23T10:26:47;96897.22;;;29.08;38.95
8061;BME280;4073;42.626;25.386;2023-05-23T10:29:12;96888.25;;;28.31;39.42
8061;BME280;4073;42.626;25.386;2023-05-23T10:31:38;96894.50;;;28.03;40.08
8061;BME280;4073;42.626;25.386;2023-05-23T10:34:15;96895.31;;;27.97;40.12
8061;BME280;4073;42.626;25.386;2023-05-23T10:37:04;96895.56;;;27.57;40.13
8061;BME280;4073;42.626;25.386;2023-05-23T10:39:41;96892.03;;;27.63;41.42
8061;BME280;4073;42.626;25.386;2023-05-23T10:42:14;96876.31;;;27.42;41.61
8061;BME280;4073;42.626;25.386;2023-05-23T10:44:41;96879.78;;;27.32;41.80
8061;BME280;4073;42.626;25.386;2023-05-23T10:47:07;96895.16;;;27.55;40.58
8061;BME280;4073;42.626;25.386;2023-05-23T10:49:45;96887.78;;;27.73;39.98
8061;BME280;4073;42.626;25.386;2023-05-23T10:52:12;96889.38;;;27.88;37.97
8061;BME280;4073;42.626;25.386;2023-05-23T10:57:09;96900.78;;;27.00;41.65
8061;BME280;4073;42.626;25.386;2023-05-23T10:59:37;96894.59;;;27.14;42.71
8061;BME280;4073;42.626;25.386;2023-05-23T11:02:10;96887.81;;;27.87;40.78
8061;BME280;4073;42.626;25.386;2023-05-23T11:04:37;96885.88;;;28.12;40.13
8061;BME280;4073;42.626;25.386;2023-05-23T11:07:03;96884.25;;;27.79;41.17
8061;BME280;4073;42.626;25.386;2023-05-23T11:09:28;96884.72;;;27.02;44.98
8061;BME280;4073;42.626;25.386;2023-05-23T11:17:28;96880.81;;;26.46;44.92
8061;BME280;4073;42.626;25.386;2023-05-23T11:20:05;96885.50;;;26.42;45.25
8061;BME280;4073;42.626;25.386;2023-05-23T11:22:32;96895.53;;;26.74;45.92
8061;BME280;4073;42.626;25.386;2023-05-23T11:24:59;96895.72;;;27.09;42.16
8061;BME280;4073;42.626;25.386;2023-05-23T11:27:39;96891.66;;;27.61;41.67
8061;BME280;4073;42.626;25.386;2023-05-23T11:30:07;96887.41;;;27.85;43.43
8061;BME280;4073;42.626;25.386;2023-05-23T11:32:34;96891.66;;;27.65;41.56
8061;BME280;4073;42.626;25.386;2023-05-23T11:35:04;96887.81;;;26.94;44.59
8061;BME280;4073;42.626;25.386;2023-05-23T11:37:30;96890.50;;;26.33;45.97
8061;BME280;4073;42.626;25.386;2023-05-23T11:39:56;96891.47;;;26.11;50.18
8061;BME280;4073;42.626;25.386;2023-05-23T11:42:23;96893.25;;;25.93;49.19
8061;BME280;4073;42.626;25.386;2023-05-23T11:44:50;96888.53;;;25.90;48.66
8061;BME280;4073;42.626;25.386;2023-05-23T11:47:16;96873.97;;;26.19;48.84
8061;BME280;4073;42.626;25.386;2023-05-23T11:49:44;96889.63;;;26.69;44.10
8061;BME280;4073;42.626;25.386;2023-05-23T11:52:10;96885.56;;;27.13;41.66
8061;BME280;4073;42.626;25.386;2023-05-23T11:54:35;96876.88;;;27.04;41.45
8061;BME280;4073;42.626;25.386;2023-05-23T11:57:01;96882.47;;;26.57;41.26
8061;BME280;4073;42.626;25.386;2023-05-23T11:59:27;96887.41;;;26.38;43.17
8061;BME280;4073;42.626;25.386;2023-05-23T12:01:54;96886.00;;;26.07;45.56
8061;BME280;4073;42.626;25.386;2023-05-23T12:04:20;96888.16;;;25.91;48.24
8061;BME280;4073;42.626;25.386;2023-05-23T12:06:47;96886.63;;;26.37;49.00
8061;BME280;4073;42.626;25.386;2023-05-23T12:09:14;96881.78;;;26.67;46.25
8061;BME280;4073;42.626;25.386;2023-05-23T12:11:41;96881.00;;;26.70;44.64
8061;BME280;4073;42.626;25.386;2023-05-23T12:14:07;96875.22;;;26.82;46.46
8061;BME280;4073;42.626;25.386;2023-05-23T12:16:33;96883.06;;;26.87;42.71
8061;BME280;4073;42.626;25.386;2023-05-23T12:19:00;96888.16;;;26.89;40.96
8061;BME280;4073;42.626;25.386;2023-05-23T12:21:46;96884.81;;;26.55;44.28
8061;BME280;4073;42.626;25.386;2023-05-23T12:24:19;96873.16;;;26.65;45.27
8061;BME280;4073;42.626;25.386;2023-05-23T12:26:58;96882.63;;;26.28;45.19
8061;BME280;4073;42.626;25.386;2023-05-23T12:29:33;96868.22;;;26.34;45.89
8061;BME280;4073;42.626;25.386;2023-05-23T12:32:04;96866.03;;;26.57;46.40
8061;BME280;4073;42.626;25.386;2023-05-23T12:34:29;96863.28;;;26.57;44.09
8061;BME280;4073;42.626;25.386;2023-05-23T12:37:00;96866.78;;;26.58;42.90
8061;BME280;4073;42.626;25.386;2023-05-23T12:39:28;96866.97;;;26.28;46.50
8061;BME280;4073;42.626;25.386;2023-05-23T12:41:55;96865.19;;;26.03;48.66
8061;BME280;4073;42.626;25.386;2023-05-23T12:44:30;96869.38;;;26.33;46.76
8061;BME280;4073;42.626;25.386;2023-05-23T12:46:56;96856.50;;;26.41;48.49
8061;BME280;4073;42.626;25.386;2023-05-23T12:49:21;96866.66;;;26.37;48.07
8061;BME280;4073;42.626;25.386;2023-05-23T12:51:47;96862.56;;;26.13;49.62
8061;BME280;4073;42.626;25.386;2023-05-23T12:54:12;96864.72;;;25.54;43.85
8061;BME280;4073;42.626;25.386;2023-05-23T12:56:38;96874.53;;;25.29;41.18
8061;BME280;4073;42.626;25.386;2023-05-23T12:59:03;96874.63;;;25.32;42.72
8061;BME280;4073;42.626;25.386;2023-05-23T13:01:29;96860.03;;;25.25;43.68
8061;BME280;4073;42.626;25.386;2023-05-23T13:03:55;96853.88;;;25.31;44.22
8061;BME280;4073;42.626;25.386;2023-05-23T13:06:20;96865.56;;;25.28;43.29
8061;BME280;4073;42.626;25.386;2023-05-23T13:08:46;96855.47;;;25.32;44.93
8061;BME280;4073;42.626;25.386;2023-05-23T13:11:12;96853.25;;;25.45;46.56
8061;BME280;4073;42.626;25.386;2023-05-23T13:13:38;96861.66;;;25.62;45.63
8061;BME280;4073;42.626;25.386;2023-05-23T13:16:04;96845.34;;;25.73;43.07
8061;BME280;4073;42.626;25.386;2023-05-23T13:18:29;96848.22;;;25.47;43.35
8061;BME280;4073;42.626;25.386;2023-05-23T13:20:55;96861.84;;;25.43;46.46
8061;BME280;4073;42.626;25.386;2023-05-23T13:23:20;96846.53;;;25.35;45.92
8061;BME280;4073;42.626;25.386;2023-05-23T13:25:46;96854.69;;;25.32;45.84
8061;BME280;4073;42.626;25.386;2023-05-23T13:28:11;96859.53;;;25.15;48.82